KHPN/HPN METAR and TAF weather

Enter ICAO airport designator
Station Type Date Time Source
KHPN METAR 2021/09/24 04:56 UTC NOAA

KHPN 240456Z 00000KT 4SM -RA BR BKN025 OVC031 17/16 A2997 RMK AO2 RAE16B30 SLP144 P0004 T01720161 402560172 $


Station Type Date Time Source
KHPN Decoded METAR 2021/09/24 04:56 UTC NOAA

WHITE PLAINS WESTCHESTER, NY, United States (KHPN) 41-04N 073-42W 121M
Sep 24, 2021 - 12:56 AM EDT / 2021.09.24 0456 UTC
Wind: Calm:0
Visibility: 4 mile(s):0
Sky conditions: overcast
Weather: light rain; mist
Precipitation last hour: 0.04 inches
Temperature: 63.0 F (17.2 C)
Dew Point: 61.0 F (16.1 C)
Relative Humidity: 93%
Pressure (altimeter): 29.97 in. Hg (1014 hPa)
ob: KHPN 240456Z 00000KT 4SM -RA BR BKN025 OVC031 17/16 A2997 RMK AO2 RAE16B30 SLP144 P0004 T01720161 402560172
cycle: 5

Station Type Date Time Source
KHPN TAF 2021/09/24 06:34 UTC NOAA

TAF KHPN 240531Z 2406/2506 26007KT 5SM -SHRA BR SCT008 SCT019 OVC025
TEMPO 2406/2407 4SM -SHRA BR SCT008 BKN019
FM240700 29006KT P6SM -SHRA SCT020 OVC035
TEMPO 2407/2409 5SM -SHRA BR BKN020
FM241300 31006KT P6SM SCT020 OVC035
FM241800 29009KT P6SM SCT050 SCT250
FM250000 33005KT P6SM SCT250
AMD NOT SKED

Example: see airport list